createdAt,value
2023-02-24T00:01:00.542Z,73.60
2023-02-24T00:03:27.280Z,75.60
2023-02-24T00:05:54.002Z,69.65
2023-02-24T00:08:20.767Z,70.78
2023-02-24T00:10:47.492Z,68.38
2023-02-24T00:13:15.594Z,71.00
2023-02-24T00:15:42.267Z,70.23
2023-02-24T00:18:08.975Z,73.43
2023-02-24T00:20:35.644Z,69.60
2023-02-24T00:23:02.403Z,68.40
2023-02-24T00:25:29.138Z,73.90
2023-02-24T00:27:55.839Z,73.38
2023-02-24T00:30:23.921Z,69.20
2023-02-24T00:32:50.772Z,65.78
2023-02-24T00:35:17.592Z,62.60
2023-02-24T00:37:44.336Z,65.90
2023-02-24T00:40:12.354Z,63.25
2023-02-24T00:42:39.076Z,62.83
2023-02-24T00:45:07.265Z,66.00
2023-02-24T00:47:38.690Z,64.50
2023-02-24T00:50:06.420Z,62.27
2023-02-24T00:52:33.126Z,66.05
2023-02-24T00:54:59.862Z,64.40
2023-02-24T00:57:26.604Z,67.15
2023-02-24T00:59:53.309Z,66.13
2023-02-24T01:02:20.256Z,66.60
2023-02-24T01:04:48.373Z,70.43
2023-02-24T01:07:15.051Z,68.07
2023-02-24T01:09:42.111Z,70.00
2023-02-24T01:12:10.591Z,65.60
2023-02-24T01:14:37.320Z,66.25
2023-02-24T01:17:04.795Z,66.70
2023-02-24T01:19:33.061Z,66.45
2023-02-24T01:22:04.174Z,67.55
2023-02-24T01:24:33.475Z,67.65
2023-02-24T01:27:00.335Z,65.22
2023-02-24T01:29:27.025Z,64.03
2023-02-24T01:31:54.321Z,61.03
2023-02-24T01:34:21.095Z,63.33
2023-02-24T01:36:47.875Z,58.05
2023-02-24T01:39:15.945Z,65.07
2023-02-24T01:41:44.876Z,65.07
2023-02-24T01:44:44.639Z,63.17
2023-02-24T01:47:12.332Z,65.00
2023-02-24T01:49:42.825Z,65.93
2023-02-24T01:52:13.545Z,64.43
2023-02-24T01:54:46.343Z,64.97
2023-02-24T01:57:17.160Z,64.53
2023-02-24T01:59:46.483Z,65.88
2023-02-24T02:02:15.322Z,63.90
2023-02-24T02:04:46.291Z,64.60
2023-02-24T02:07:15.512Z,63.50
2023-02-24T02:09:45.516Z,63.90
2023-02-24T02:12:13.019Z,64.40
2023-02-24T02:14:43.636Z,65.93
2023-02-24T02:17:22.054Z,64.93
2023-02-24T02:20:19.415Z,68.47
2023-02-24T02:23:31.138Z,64.60
2023-02-24T02:26:19.938Z,62.75
2023-02-24T02:29:08.889Z,60.30
2023-02-24T02:31:56.766Z,60.08
2023-02-24T02:34:36.861Z,61.55
2023-02-24T02:37:10.389Z,58.13
2023-02-24T02:39:48.960Z,61.60
2023-02-24T02:42:25.394Z,62.53
2023-02-24T02:44:59.366Z,61.88
2023-02-24T02:47:31.232Z,61.05
2023-02-24T02:50:06.603Z,57.95
2023-02-24T02:52:38.188Z,58.35
2023-02-24T02:55:09.828Z,65.82
2023-02-24T02:57:40.029Z,63.60
2023-02-24T03:00:12.780Z,64.50
2023-02-24T03:02:43.293Z,64.70
2023-02-24T03:05:15.537Z,64.78
2023-02-24T03:07:47.738Z,65.00
2023-02-24T03:10:17.698Z,60.60
2023-02-24T03:12:46.888Z,61.35
2023-02-24T03:15:15.604Z,64.20
2023-02-24T03:17:45.493Z,63.57
2023-02-24T03:20:18.845Z,63.30
2023-02-24T03:22:49.622Z,58.80
2023-02-24T03:25:16.601Z,62.20
2023-02-24T03:27:47.042Z,59.65
2023-02-24T03:30:18.711Z,56.90
2023-02-24T03:32:51.651Z,58.72
2023-02-24T03:35:22.578Z,59.67
2023-02-24T03:37:49.928Z,60.13
2023-02-24T03:40:17.678Z,61.58
2023-02-24T03:42:48.253Z,56.85
2023-02-24T03:45:15.892Z,60.45
2023-02-24T03:47:43.344Z,59.15
2023-02-24T03:50:13.414Z,62.70
2023-02-24T03:52:47.440Z,58.17
2023-02-24T03:55:26.540Z,59.90
2023-02-24T03:58:03.826Z,57.45
2023-02-24T04:00:38.537Z,57.13
2023-02-24T04:03:13.904Z,58.60
2023-02-24T04:05:48.713Z,54.70
2023-02-24T04:08:21.222Z,62.08
2023-02-24T04:10:53.418Z,56.17
2023-02-24T04:13:27.989Z,56.90
2023-02-24T04:16:00.839Z,59.92
2023-02-24T04:18:31.417Z,60.35
2023-02-24T04:21:01.757Z,58.93
2023-02-24T04:23:32.571Z,57.35
2023-02-24T04:26:00.276Z,56.30
2023-02-24T04:28:28.691Z,55.33
2023-02-24T04:31:00.493Z,54.10
2023-02-24T04:33:27.698Z,57.13
2023-02-24T04:35:54.671Z,58.88
2023-02-24T04:38:21.590Z,51.78
2023-02-24T04:40:49.853Z,56.25
2023-02-24T04:43:16.821Z,55.10
2023-02-24T04:45:43.523Z,60.50
2023-02-24T04:48:10.714Z,52.73
2023-02-24T04:50:37.478Z,55.85
2023-02-24T04:53:06.687Z,51.10
2023-02-24T04:55:36.671Z,52.92
2023-02-24T04:58:04.734Z,55.75
2023-02-24T05:00:31.556Z,53.28
2023-02-24T05:02:58.295Z,49.75
2023-02-24T05:05:25.674Z,49.60
2023-02-24T05:07:52.802Z,52.00
2023-02-24T05:10:19.729Z,47.53
2023-02-24T05:12:46.438Z,50.47
2023-02-24T05:15:14.546Z,48.25
2023-02-24T05:17:41.238Z,48.63
2023-02-24T05:20:09.781Z,48.03
2023-02-24T05:22:36.466Z,53.17
2023-02-24T05:25:03.240Z,48.67
2023-02-24T05:27:29.956Z,53.83
2023-02-24T05:29:56.655Z,46.05
2023-02-24T05:32:24.842Z,44.88
2023-02-24T05:34:51.630Z,52.10
2023-02-24T05:37:18.389Z,45.88
2023-02-24T05:39:47.069Z,48.38
2023-02-24T05:42:13.757Z,47.00
2023-02-24T05:44:40.414Z,46.60
2023-02-24T05:47:07.167Z,46.33
2023-02-24T05:49:35.692Z,44.63
2023-02-24T05:52:04.882Z,45.95
2023-02-24T05:54:34.345Z,47.50
2023-02-24T05:57:03.113Z,44.38
2023-02-24T05:59:30.174Z,44.92
2023-02-24T06:01:56.882Z,45.40
2023-02-24T06:04:23.567Z,46.90
2023-02-24T06:06:51.628Z,45.63
2023-02-24T06:09:19.842Z,45.00
2023-02-24T06:11:46.551Z,47.57
2023-02-24T06:14:13.320Z,43.28
2023-02-24T06:16:41.741Z,46.35
2023-02-24T06:19:10.127Z,43.50
2023-02-24T06:21:38.787Z,47.72
2023-02-24T06:24:10.513Z,46.58
2023-02-24T06:26:37.202Z,52.03
2023-02-24T06:29:03.986Z,49.75
2023-02-24T06:31:30.824Z,46.72
2023-02-24T06:33:57.986Z,46.67
2023-02-24T06:36:37.592Z,47.70
2023-02-24T06:39:06.502Z,50.70
2023-02-24T06:41:34.403Z,42.08
2023-02-24T06:44:01.148Z,42.53
2023-02-24T06:46:28.097Z,43.67
2023-02-24T06:48:55.269Z,42.47
2023-02-24T06:51:22.237Z,42.67
2023-02-24T06:53:50.540Z,44.20
2023-02-24T06:56:32.449Z,42.03
2023-02-24T07:58:44.630Z,44.42
2023-02-24T08:01:16.047Z,45.05
2023-02-24T08:03:47.743Z,42.47
2023-02-24T08:06:14.473Z,42.75
2023-02-24T08:16:35.447Z,43.58
2023-02-24T08:19:02.104Z,40.50
2023-02-24T08:21:28.769Z,35.75
2023-02-24T08:23:55.477Z,36.65
2023-02-24T08:26:22.189Z,36.88
2023-02-24T08:28:48.920Z,31.63
2023-02-24T08:31:15.695Z,38.03
2023-02-24T08:33:43.857Z,36.50
2023-02-24T08:36:10.493Z,34.50
2023-02-24T08:38:37.355Z,32.08
2023-02-24T08:41:04.302Z,33.05
2023-02-24T08:43:37.284Z,37.28
2023-02-24T08:46:14.216Z,35.97
2023-02-24T08:48:44.469Z,35.13
2023-02-24T08:51:14.023Z,31.48
2023-02-24T08:53:40.888Z,31.23
2023-02-24T08:56:09.840Z,32.00
2023-02-24T08:58:36.668Z,29.15
2023-02-24T09:01:03.646Z,31.53
2023-02-24T09:03:30.423Z,33.83
2023-02-24T09:06:00.818Z,31.65
2023-02-24T09:08:27.541Z,28.45
2023-02-24T09:10:54.210Z,28.17
2023-02-24T09:13:20.923Z,29.77
2023-02-24T09:15:48.078Z,29.20
2023-02-24T09:18:14.913Z,27.50
2023-02-24T09:20:41.662Z,25.05
2023-02-24T09:23:12.681Z,26.98
2023-02-24T09:25:39.842Z,31.30
2023-02-24T09:28:08.557Z,27.35
2023-02-24T09:30:36.899Z,26.73
2023-02-24T09:33:09.049Z,29.40
2023-02-24T09:35:35.850Z,28.23
2023-02-24T09:38:03.768Z,28.67
2023-02-24T09:40:33.056Z,32.58
2023-02-24T09:42:59.831Z,24.25
2023-02-24T09:45:26.912Z,27.80
2023-02-24T09:47:54.489Z,25.42
2023-02-24T09:50:55.570Z,24.20
2023-02-24T09:53:17.456Z,28.02
2023-02-24T09:55:54.020Z,27.50
2023-02-24T09:58:43.457Z,26.13
2023-02-24T10:01:23.755Z,28.00
2023-02-24T10:03:56.327Z,26.48
2023-02-24T10:06:26.402Z,30.48
2023-02-24T10:08:57.796Z,25.30
2023-02-24T10:11:29.382Z,28.30
2023-02-24T10:14:03.536Z,29.92
2023-02-24T10:16:32.188Z,25.17
2023-02-24T10:19:05.563Z,29.27
2023-02-24T10:21:39.217Z,27.00
2023-02-24T10:24:16.064Z,29.50
2023-02-24T10:27:00.922Z,28.67
2023-02-24T10:29:50.593Z,26.40
2023-02-24T10:32:27.664Z,28.63
2023-02-24T10:34:54.608Z,30.02
2023-02-24T10:37:28.667Z,24.77
2023-02-24T10:39:57.472Z,26.67
2023-02-24T10:42:27.411Z,26.30
2023-02-24T10:45:17.344Z,23.52
2023-02-24T10:47:49.551Z,26.17
2023-02-24T10:50:21.859Z,24.33
2023-02-24T10:52:49.103Z,22.65
2023-02-24T10:55:24.365Z,24.20
2023-02-24T10:57:58.940Z,23.70
2023-02-24T11:00:28.342Z,26.90
2023-02-24T11:02:55.321Z,22.88
2023-02-24T11:05:23.089Z,17.20
2023-02-24T11:07:49.871Z,20.73
2023-02-24T11:10:18.764Z,20.17
2023-02-24T11:12:47.302Z,22.45
2023-02-24T11:15:21.910Z,15.82
2023-02-24T11:17:50.741Z,18.03
2023-02-24T11:20:33.647Z,21.65
2023-02-24T11:23:09.062Z,18.55
2023-02-24T11:25:37.537Z,18.98
2023-02-24T11:28:04.387Z,18.20
2023-02-24T11:30:42.240Z,17.08
2023-02-24T11:33:27.997Z,16.92
2023-02-24T11:36:03.626Z,16.40
2023-02-24T11:38:39.207Z,21.20
2023-02-24T11:41:15.436Z,19.67
2023-02-24T11:43:48.781Z,17.23
2023-02-24T11:46:20.156Z,19.33
2023-02-24T11:48:51.401Z,18.58
2023-02-24T11:51:20.863Z,19.67
2023-02-24T11:53:50.920Z,18.67
2023-02-24T11:56:22.769Z,17.57
2023-02-24T11:58:57.535Z,24.30
2023-02-24T12:01:31.350Z,20.50
2023-02-24T12:04:10.579Z,17.33
2023-02-24T12:06:41.389Z,15.80
2023-02-24T12:09:13.707Z,20.63
2023-02-24T12:11:47.237Z,20.90
2023-02-24T12:14:21.581Z,19.65
2023-02-24T12:16:56.667Z,21.98
2023-02-24T12:19:28.982Z,23.08
2023-02-24T12:22:01.518Z,16.50
2023-02-24T12:24:28.837Z,23.40
2023-02-24T12:27:03.735Z,24.15
2023-02-24T12:29:46.937Z,22.95
2023-02-24T12:32:24.163Z,17.98
2023-02-24T12:35:01.283Z,20.88
2023-02-24T12:37:52.783Z,22.42
2023-02-24T12:40:30.916Z,25.63
2023-02-24T12:43:11.566Z,20.70
2023-02-24T12:45:48.173Z,20.67
2023-02-24T12:48:31.918Z,19.98
2023-02-24T12:51:05.871Z,19.90
2023-02-24T12:53:43.752Z,17.30
2023-02-24T12:56:18.179Z,21.13
2023-02-24T12:58:47.971Z,16.73
2023-02-24T13:01:22.290Z,19.33
2023-02-24T13:04:07.257Z,12.40
2023-02-24T13:06:52.650Z,15.95
2023-02-24T13:09:28.241Z,11.98
2023-02-24T13:12:01.402Z,10.18
2023-02-24T13:14:31.818Z,10.63
2023-02-24T13:17:18.622Z,10.63
2023-02-24T13:19:48.195Z,11.60
2023-02-24T13:22:25.752Z,14.27
2023-02-24T13:25:04.903Z,10.95
2023-02-24T13:27:34.967Z,13.25
2023-02-24T13:30:06.883Z,8.98
2023-02-24T13:32:36.856Z,15.90
2023-02-24T13:35:26.920Z,15.95
2023-02-24T13:37:54.394Z,12.73
2023-02-24T13:40:24.954Z,8.60
2023-02-24T13:43:00.031Z,10.98
2023-02-24T13:45:28.533Z,7.27
2023-02-24T13:48:23.109Z,8.52
2023-02-24T13:51:08.162Z,8.48
2023-02-24T13:53:50.944Z,7.68
2023-02-24T13:56:30.842Z,10.18
2023-02-24T13:59:14.344Z,11.80
2023-02-24T14:01:50.006Z,12.13
2023-02-24T14:04:20.636Z,10.60
2023-02-24T14:06:52.384Z,7.50
2023-02-24T14:09:23.736Z,8.00
2023-02-24T14:11:54.834Z,11.18
2023-02-24T14:14:22.079Z,10.35
2023-02-24T14:16:50.920Z,9.20
2023-02-24T14:19:17.845Z,10.27
2023-02-24T14:21:51.074Z,8.32
2023-02-24T14:24:18.714Z,12.98
2023-02-24T14:26:47.801Z,14.80
2023-02-24T14:29:18.987Z,8.33
2023-02-24T14:31:48.666Z,7.95
2023-02-24T14:34:19.933Z,12.27
2023-02-24T14:36:48.288Z,9.77
2023-02-24T14:39:21.218Z,10.77
2023-02-24T14:41:49.172Z,9.33
2023-02-24T14:44:22.435Z,10.85
2023-02-24T14:46:51.674Z,9.07
2023-02-24T14:49:23.876Z,12.30
2023-02-24T14:51:57.936Z,9.77
2023-02-24T14:54:38.665Z,13.80
2023-02-24T14:57:06.319Z,14.25
2023-02-24T14:59:37.149Z,12.13
2023-02-24T15:02:05.114Z,13.95
2023-02-24T15:04:35.744Z,13.90
2023-02-24T15:07:05.479Z,13.40
2023-02-24T15:09:40.137Z,13.65
2023-02-24T15:12:17.005Z,12.63
2023-02-24T15:14:50.116Z,12.48
2023-02-24T15:17:19.718Z,15.95
2023-02-24T15:19:46.492Z,9.98
2023-02-24T15:22:21.959Z,11.75
2023-02-24T15:24:51.467Z,11.98
2023-02-24T15:27:25.519Z,13.80
2023-02-24T15:30:01.018Z,10.57
2023-02-24T15:32:31.734Z,13.07
2023-02-24T15:34:58.896Z,13.15
2023-02-24T15:37:27.691Z,11.83
2023-02-24T15:40:07.194Z,11.88
2023-02-24T15:42:35.364Z,11.93
2023-02-24T15:45:05.077Z,11.38
2023-02-24T15:47:42.254Z,15.20
2023-02-24T15:50:10.348Z,14.30
2023-02-24T15:52:37.457Z,15.60
2023-02-24T15:55:06.942Z,11.75
2023-02-24T15:57:34.145Z,15.03
2023-02-24T16:00:00.871Z,14.47
2023-02-24T16:02:28.306Z,18.25
2023-02-24T16:04:54.982Z,16.40
2023-02-24T16:07:24.060Z,20.03
2023-02-24T16:09:52.992Z,19.50
2023-02-24T16:12:24.019Z,20.92
2023-02-24T16:14:51.182Z,21.10
2023-02-24T16:17:26.400Z,18.15
2023-02-24T16:19:53.082Z,21.58
2023-02-24T16:22:19.817Z,16.65
2023-02-24T16:24:46.559Z,19.60
2023-02-24T16:27:16.134Z,21.20
2023-02-24T16:29:44.247Z,19.57
2023-02-24T16:32:12.713Z,21.75
2023-02-24T16:34:39.960Z,18.70
2023-02-24T16:37:16.513Z,19.13
2023-02-24T16:39:43.218Z,21.77
2023-02-24T16:42:11.808Z,20.80
2023-02-24T16:44:38.902Z,19.70
2023-02-24T16:47:08.169Z,23.10
2023-02-24T16:49:35.036Z,21.43
2023-02-24T16:52:01.685Z,20.73
2023-02-24T16:54:28.373Z,19.17
2023-02-24T16:56:55.105Z,19.23
2023-02-24T16:59:21.859Z,19.80
2023-02-24T17:01:48.608Z,21.20
2023-02-24T17:04:16.728Z,19.17
2023-02-24T17:06:43.450Z,21.60
2023-02-24T17:09:10.229Z,21.48
2023-02-24T17:11:36.907Z,15.20
2023-02-24T17:14:03.575Z,23.13
2023-02-24T17:16:30.341Z,14.70
2023-02-24T17:18:57.053Z,19.15
2023-02-24T17:21:29.199Z,21.05
2023-02-24T17:23:56.869Z,13.95
2023-02-24T17:26:24.073Z,15.70
2023-02-24T17:28:50.947Z,17.40
2023-02-24T17:31:17.797Z,13.80
2023-02-24T17:33:44.850Z,18.75
2023-02-24T17:36:13.771Z,18.92
2023-02-24T17:38:42.031Z,21.13
2023-02-24T17:41:27.177Z,17.85
2023-02-24T17:43:54.605Z,20.77
2023-02-24T17:46:21.937Z,22.60
2023-02-24T17:48:48.911Z,22.92
2023-02-24T17:51:16.503Z,21.95
2023-02-24T17:53:45.175Z,19.33
2023-02-24T17:56:12.109Z,23.93
2023-02-24T17:58:39.431Z,20.15
2023-02-24T18:01:06.953Z,17.52
2023-02-24T18:03:34.483Z,20.17
2023-02-24T18:06:03.291Z,23.45
2023-02-24T18:08:30.451Z,20.45
2023-02-24T18:10:59.104Z,16.35
2023-02-24T18:13:26.276Z,17.87
2023-02-24T18:15:53.337Z,18.02
2023-02-24T18:18:20.238Z,19.73
2023-02-24T18:20:47.010Z,24.38
2023-02-24T18:23:14.526Z,28.33
2023-02-24T18:25:41.255Z,25.90
2023-02-24T18:28:09.520Z,26.27
2023-02-24T18:30:38.667Z,16.77
2023-02-24T18:33:05.660Z,15.50
2023-02-24T18:35:32.646Z,18.77
2023-02-24T18:37:59.421Z,23.30
2023-02-24T18:40:27.362Z,15.80
2023-02-24T18:42:54.459Z,14.90
2023-02-24T18:45:23.549Z,15.38
2023-02-24T18:47:51.957Z,15.50
2023-02-24T18:50:19.020Z,20.13
2023-02-24T18:52:45.762Z,14.32
2023-02-24T18:55:12.423Z,19.15
2023-02-24T18:57:39.110Z,17.15
2023-02-24T19:00:07.188Z,17.27
2023-02-24T19:02:35.305Z,14.18
2023-02-24T19:05:02.147Z,13.82
2023-02-24T19:07:28.825Z,17.50
2023-02-24T19:09:55.573Z,15.50
2023-02-24T19:12:22.281Z,18.27
2023-02-24T19:14:51.243Z,12.80
2023-02-24T19:17:19.029Z,12.00
2023-02-24T19:19:47.187Z,15.60
2023-02-24T19:22:13.949Z,22.50
2023-02-24T19:24:40.666Z,17.25
2023-02-24T19:27:07.449Z,13.05
2023-02-24T19:29:34.108Z,17.15
2023-02-24T19:32:01.036Z,17.42
2023-02-24T19:34:27.808Z,17.20
2023-02-24T19:36:55.927Z,18.42
2023-02-24T19:39:22.618Z,18.63
2023-02-24T19:41:50.006Z,12.20
2023-02-24T19:44:16.901Z,17.73
2023-02-24T19:46:43.619Z,13.05
2023-02-24T19:49:10.299Z,14.45
2023-02-24T19:51:37.085Z,13.93
2023-02-24T19:54:05.504Z,12.85
2023-02-24T19:56:34.213Z,15.73
2023-02-24T19:59:01.944Z,11.38
2023-02-24T20:01:29.503Z,12.38
2023-02-24T20:03:57.709Z,13.55
2023-02-24T20:06:26.798Z,17.33
2023-02-24T20:08:54.380Z,17.83
2023-02-24T20:11:23.651Z,14.10
2023-02-24T20:13:52.010Z,13.52
2023-02-24T20:16:20.384Z,13.73
2023-02-24T20:18:47.226Z,20.83
2023-02-24T20:21:13.997Z,18.85
2023-02-24T20:23:41.137Z,11.90
2023-02-24T20:26:10.098Z,18.48
2023-02-24T20:28:38.224Z,13.85
2023-02-24T20:31:08.499Z,11.40
2023-02-24T20:33:35.836Z,16.83
2023-02-24T20:36:07.786Z,25.38
2023-02-24T20:38:34.558Z,15.15
2023-02-24T20:41:01.480Z,12.98
2023-02-24T20:43:28.467Z,18.77
2023-02-24T20:45:56.675Z,18.90
2023-02-24T20:48:24.023Z,18.42
2023-02-24T20:50:51.395Z,16.40
2023-02-24T20:53:18.228Z,14.30
2023-02-24T20:55:45.100Z,14.70
2023-02-24T20:58:14.155Z,17.20
2023-02-24T21:00:41.086Z,23.23
2023-02-24T21:03:09.371Z,17.73
2023-02-24T21:05:36.191Z,18.77
2023-02-24T21:08:03.254Z,15.13
2023-02-24T21:10:29.968Z,20.20
2023-02-24T21:12:56.791Z,13.57
2023-02-24T21:15:23.607Z,18.10
2023-02-24T21:17:50.546Z,17.13
2023-02-24T21:20:19.067Z,11.80
2023-02-24T21:22:45.950Z,17.65
2023-02-24T21:25:12.800Z,14.77
2023-02-24T21:27:39.722Z,20.35
2023-02-24T21:30:08.220Z,14.90
2023-02-24T21:32:35.767Z,17.65
2023-02-24T21:35:02.559Z,10.93
2023-02-24T21:37:30.682Z,14.40
2023-02-24T21:39:59.564Z,14.10
2023-02-24T21:42:26.300Z,17.40
2023-02-24T21:44:53.019Z,12.73
2023-02-24T21:47:19.957Z,17.75
2023-02-24T21:49:48.235Z,23.30
2023-02-24T21:52:14.897Z,16.35
2023-02-24T21:54:42.995Z,16.55
2023-02-24T21:57:09.681Z,13.60
2023-02-24T21:59:36.343Z,17.50
2023-02-24T22:02:03.249Z,18.13
2023-02-24T22:04:30.034Z,14.85
2023-02-24T22:06:56.736Z,12.93
2023-02-24T22:09:23.457Z,22.40
2023-02-24T22:11:51.549Z,22.63
2023-02-24T22:14:18.323Z,16.23
2023-02-24T22:16:45.131Z,15.18
2023-02-24T22:19:12.486Z,18.45
2023-02-24T22:21:40.741Z,21.75
2023-02-24T22:24:08.842Z,15.35
2023-02-24T22:26:35.619Z,14.10
2023-02-24T22:29:03.895Z,14.20
2023-02-24T22:31:32.560Z,15.13
2023-02-24T22:33:59.609Z,17.17
2023-02-24T22:36:28.352Z,20.05
2023-02-24T22:38:56.469Z,21.80
2023-02-24T22:41:25.443Z,15.80
2023-02-24T22:43:52.208Z,22.23
2023-02-24T22:46:23.301Z,18.70
2023-02-24T22:48:50.488Z,21.27
2023-02-24T22:51:17.945Z,19.38
2023-02-24T22:53:47.902Z,15.18
2023-02-24T22:56:16.741Z,22.25
2023-02-24T22:58:43.900Z,14.60
2023-02-24T23:01:11.871Z,12.38
2023-02-24T23:03:40.280Z,13.75
2023-02-24T23:06:08.879Z,19.50
2023-02-24T23:08:38.454Z,20.88
2023-02-24T23:13:33.431Z,20.20
2023-02-24T23:16:01.197Z,16.08
2023-02-24T23:18:27.928Z,17.92
2023-02-24T23:20:58.825Z,16.48
2023-02-24T23:23:25.996Z,18.10
2023-02-24T23:25:52.843Z,17.98
2023-02-24T23:28:19.722Z,23.20
2023-02-24T23:30:46.853Z,20.08
2023-02-24T23:33:13.736Z,13.43
2023-02-24T23:35:40.441Z,18.38
2023-02-24T23:38:09.516Z,13.80
2023-02-24T23:40:49.672Z,14.93
2023-02-24T23:43:17.221Z,14.32
2023-02-24T23:45:44.057Z,14.48
2023-02-24T23:48:12.628Z,19.23
2023-02-24T23:50:40.762Z,14.43
2023-02-24T23:53:09.161Z,16.77
2023-02-24T23:55:38.269Z,11.57
2023-02-24T23:58:05.382Z,14.85
